Time;durP1;ratioP1;P1;durP2;ratioP2;P2;SDS_P1;SDS_P2;PMS_P1;PMS_P2;Temp;Humidity;BMP_temperature;BMP_pressure;BME280_temperature;BME280_humidity;BME280_pressure;Samples;Min_cycle;Max_cycle;Signal;HPM_P1;HPM_P2
2024/03/28 00:01:09;;;;;;;2.03;1.30;;;16.50;72.50;;;;;;5050846;28;20017;-81
2024/03/28 00:03:35;;;;;;;2.30;1.40;;;16.50;72.60;;;;;;5049435;28;20029;-82
2024/03/28 00:06:03;;;;;;;1.87;1.23;;;16.40;72.60;;;;;;5051742;28;20351;-80
2024/03/28 00:08:30;;;;;;;2.22;1.42;;;16.50;72.50;;;;;;5047899;28;20025;-81
2024/03/28 00:10:56;;;;;;;3.20;1.58;;;16.40;72.60;;;;;;5049439;28;20028;-81
2024/03/28 00:13:22;;;;;;;1.70;1.20;;;16.40;72.50;;;;;;5050541;28;20029;-81
2024/03/28 00:16:05;;;;;;;2.72;1.50;;;16.40;72.50;;;;;;5050846;28;20029;-81
2024/03/28 00:18:30;;;;;;;1.83;1.42;;;16.40;72.40;;;;;;5050575;28;20541;-81
2024/03/28 00:20:57;;;;;;;2.00;1.40;;;16.40;72.50;;;;;;5050840;28;20108;-81
2024/03/28 00:23:23;;;;;;;3.78;1.60;;;16.40;72.40;;;;;;5051003;28;20420;-81
2024/03/28 00:25:57;;;;;;;1.43;1.20;;;16.40;72.40;;;;;;5036687;28;20033;-81
2024/03/28 00:28:23;;;;;;;2.45;1.40;;;16.40;72.30;;;;;;5050649;28;20029;-80
2024/03/28 00:30:49;;;;;;;2.22;1.33;;;16.40;72.30;;;;;;5036625;28;20080;-81
2024/03/28 00:33:15;;;;;;;2.05;1.30;;;16.40;72.30;;;;;;5050566;28;20063;-81
2024/03/28 00:35:45;;;;;;;1.52;1.20;;;16.30;72.20;;;;;;5050683;28;20112;-81
2024/03/28 00:38:11;;;;;;;1.90;1.52;;;16.40;72.20;;;;;;5049857;28;20033;-80
2024/03/28 00:40:45;;;;;;;3.00;1.85;;;16.30;72.20;;;;;;5050434;28;20032;-81
2024/03/28 00:43:10;;;;;;;1.55;1.27;;;16.30;72.10;;;;;;5049964;28;20090;-81
2024/03/28 00:45:36;;;;;;;1.83;1.20;;;16.30;72.10;;;;;;5050392;28;20021;-81
2024/03/28 00:48:03;;;;;;;1.57;1.30;;;16.30;72.10;;;;;;5051434;28;20455;-80
2024/03/28 00:50:28;;;;;;;1.58;1.27;;;16.30;72.10;;;;;;5043475;28;20022;-81
2024/03/28 00:52:54;;;;;;;1.40;1.30;;;16.30;72.10;;;;;;5044661;28;20033;-82
2024/03/28 00:55:20;;;;;;;1.00;1.00;;;16.30;72.10;;;;;;5050437;28;20025;-80
2024/03/28 00:57:46;;;;;;;1.47;1.10;;;16.30;72.10;;;;;;5050305;28;20032;-80
2024/03/28 01:00:11;;;;;;;1.93;1.37;;;16.30;72.00;;;;;;5049801;28;20013;-81
2024/03/28 01:02:37;;;;;;;1.67;1.00;;;16.30;72.10;;;;;;5050218;28;20021;-81
2024/03/28 01:05:03;;;;;;;2.17;1.20;;;16.30;72.10;;;;;;5051804;28;20462;-81
2024/03/28 01:07:29;;;;;;;1.73;1.30;;;16.30;72.00;;;;;;5051455;28;20132;-81
2024/03/28 01:09:54;;;;;;;2.10;1.20;;;16.20;72.00;;;;;;5049568;28;20043;-81
2024/03/28 01:12:20;;;;;;;1.50;1.10;;;16.20;72.10;;;;;;5049989;28;20025;-80
2024/03/28 01:14:46;;;;;;;1.53;1.30;;;16.20;72.00;;;;;;5049453;28;20021;-80
2024/03/28 01:17:11;;;;;;;1.60;1.07;;;16.20;72.00;;;;;;5049168;28;20417;-80
2024/03/28 01:19:37;;;;;;;2.00;1.40;;;16.20;72.00;;;;;;5049355;28;20033;-81
2024/03/28 01:22:03;;;;;;;1.43;1.30;;;16.20;72.00;;;;;;5049324;28;20404;-81
2024/03/28 01:24:29;;;;;;;2.03;1.33;;;16.20;72.00;;;;;;5049617;28;20025;-80
2024/03/28 01:26:55;;;;;;;2.43;1.33;;;16.10;72.00;;;;;;5052464;28;20025;-79
2024/03/28 01:29:20;;;;;;;2.10;1.37;;;16.20;71.90;;;;;;5053238;28;20466;-81
2024/03/28 01:31:46;;;;;;;1.30;1.20;;;16.20;72.00;;;;;;5053259;28;20096;-81
2024/03/28 01:34:12;;;;;;;1.33;1.23;;;16.10;72.00;;;;;;5053222;28;20031;-81
2024/03/28 01:36:37;;;;;;;1.30;1.13;;;16.20;71.90;;;;;;5053535;28;20431;-81
2024/03/28 01:39:03;;;;;;;2.30;1.60;;;16.10;72.00;;;;;;5053046;28;20078;-80
2024/03/28 01:41:29;;;;;;;2.63;1.40;;;16.10;72.00;;;;;;5053412;28;20382;-81
2024/03/28 01:43:54;;;;;;;1.90;1.07;;;16.10;71.90;;;;;;5053436;28;20037;-80
2024/03/28 01:46:21;;;;;;;1.57;1.10;;;16.10;72.00;;;;;;5052772;28;20029;-80
2024/03/28 01:48:48;;;;;;;2.35;1.15;;;16.10;71.90;;;;;;5052524;28;20025;-79
2024/03/28 01:51:15;;;;;;;1.70;1.20;;;16.10;72.10;;;;;;5052502;28;20051;-81
2024/03/28 01:53:41;;;;;;;;;;;16.10;72.00;;;;;;5053620;28;20025;-81
2024/03/28 01:56:07;;;;;;;1.80;1.25;;;16.10;71.90;;;;;;5053497;28;20346;-81
2024/03/28 01:58:33;;;;;;;1.17;1.07;;;16.10;72.00;;;;;;5052815;28;20090;-81
2024/03/28 02:01:00;;;;;;;2.17;1.35;;;16.00;71.90;;;;;;5053086;28;20452;-80
2024/03/28 02:03:25;;;;;;;1.48;1.15;;;16.00;71.90;;;;;;5051475;28;20029;-81
2024/03/28 02:05:51;;;;;;;2.37;1.33;;;16.00;71.90;;;;;;5052445;28;20035;-81
2024/03/28 02:08:17;;;;;;;2.00;1.13;;;16.00;71.90;;;;;;5052327;28;20029;-80
2024/03/28 02:10:45;;;;;;;1.65;1.17;;;16.00;72.00;;;;;;5050124;28;20022;-80
2024/03/28 02:13:12;;;;;;;2.05;1.20;;;16.00;71.80;;;;;;5052253;28;20442;-81
2024/03/28 02:15:38;;;;;;;;;;;16.00;71.90;;;;;;5053168;28;20017;-82
2024/03/28 02:18:04;;;;;;;4.82;1.50;;;16.00;71.80;;;;;;5052264;28;20332;-81
2024/03/28 02:20:30;;;;;;;2.70;1.20;;;15.90;71.90;;;;;;5046926;28;20040;-80
2024/03/28 02:22:56;;;;;;;1.03;1.00;;;16.00;71.90;;;;;;5052229;28;20083;-81
2024/03/28 02:25:22;;;;;;;1.53;0.90;;;15.90;72.00;;;;;;5052260;28;20254;-80
2024/03/28 02:27:47;;;;;;;2.30;1.20;;;15.90;71.90;;;;;;5051051;28;20471;-80
2024/03/28 02:30:13;;;;;;;1.47;0.90;;;15.90;71.90;;;;;;5041441;28;20096;-80
2024/03/28 02:32:39;;;;;;;2.33;1.30;;;15.90;72.00;;;;;;5053424;28;20047;-80
2024/03/28 02:35:06;;;;;;;1.40;1.20;;;15.90;72.00;;;;;;5052116;28;20079;-80
2024/03/28 02:37:32;;;;;;;1.70;1.10;;;15.90;71.90;;;;;;5053864;28;20021;-81
2024/03/28 02:39:58;;;;;;;1.23;1.13;;;15.90;71.90;;;;;;5051700;28;20090;-80
2024/03/28 02:42:24;;;;;;;1.27;0.97;;;15.90;72.00;;;;;;5051325;28;20096;-80
2024/03/28 02:44:50;;;;;;;1.40;0.90;;;15.90;71.90;;;;;;5048725;28;20034;-79
2024/03/28 02:47:16;;;;;;;2.23;1.20;;;15.90;71.90;;;;;;5040683;28;20748;-81
2024/03/28 02:49:42;;;;;;;1.53;1.13;;;15.90;71.90;;;;;;5053070;28;20025;-81
2024/03/28 02:52:07;;;;;;;1.20;1.10;;;15.90;71.90;;;;;;5051879;28;20040;-81
2024/03/28 02:54:33;;;;;;;1.50;1.30;;;15.80;72.10;;;;;;5051716;28;20025;-81
2024/03/28 02:57:04;;;;;;;1.33;1.03;;;15.80;71.90;;;;;;5051217;28;20028;-80
2024/03/28 02:59:31;;;;;;;1.52;1.20;;;15.80;71.90;;;;;;5053280;28;20036;-80
2024/03/28 03:01:57;;;;;;;2.33;1.15;;;15.80;71.90;;;;;;5051782;28;20134;-81
2024/03/28 03:04:23;;;;;;;1.38;0.90;;;15.80;71.90;;;;;;5051749;28;20087;-81
2024/03/28 03:06:49;;;;;;;1.60;1.00;;;15.80;71.80;;;;;;5051227;28;20051;-80
2024/03/28 03:09:15;;;;;;;1.58;1.30;;;15.80;71.80;;;;;;5051854;28;20040;-80
2024/03/28 03:11:41;;;;;;;2.95;1.40;;;15.80;71.90;;;;;;5052017;28;20539;-80
2024/03/28 03:14:07;;;;;;;1.33;1.07;;;15.80;71.90;;;;;;5051170;28;20029;-80
2024/03/28 03:16:33;;;;;;;1.48;1.20;;;15.80;71.90;;;;;;5051076;28;20057;-80
2024/03/28 03:19:00;;;;;;;2.33;1.17;;;15.80;71.80;;;;;;5047536;28;20076;-80
2024/03/28 03:21:25;;;;;;;1.55;1.10;;;15.70;71.80;;;;;;5042932;28;20029;-81
2024/03/28 03:24:00;;;;;;;1.97;1.00;;;15.70;71.70;;;;;;5051471;28;20477;-81
2024/03/28 03:26:31;;;;;;;1.30;1.00;;;15.70;71.70;;;;;;5052463;28;20017;-81
2024/03/28 03:34:35;;;;;;;1.30;1.00;;;15.70;71.70;;;;;;5052380;28;20035;-81
2024/03/28 03:37:08;;;;;;;1.30;1.20;;;15.70;71.80;;;;;;5051013;28;20033;-81
2024/03/28 03:39:35;;;;;;;1.38;1.05;;;15.70;71.70;;;;;;5050987;28;20033;-80
2024/03/28 03:42:00;;;;;;;1.20;1.10;;;15.70;71.70;;;;;;5051792;28;20457;-80
2024/03/28 03:44:26;;;;;;;1.20;1.10;;;15.70;71.70;;;;;;5052172;28;20029;-80
2024/03/28 03:46:52;;;;;;;0.97;0.90;;;15.70;71.70;;;;;;5050925;28;20025;-80
2024/03/28 03:49:18;;;;;;;3.10;1.00;;;15.70;71.70;;;;;;5051741;28;20028;-81
2024/03/28 03:51:43;;;;;;;1.47;1.20;;;15.60;71.80;;;;;;5050785;28;20029;-81
2024/03/28 03:54:09;;;;;;;3.13;1.17;;;15.60;71.70;;;;;;5050672;28;20076;-81
2024/03/28 03:56:35;;;;;;;1.30;0.90;;;15.60;71.70;;;;;;5050419;28;20036;-80
2024/03/28 03:59:02;;;;;;;1.77;0.90;;;15.60;71.60;;;;;;5050250;28;20039;-81
2024/03/28 04:01:27;;;;;;;;;;;15.60;71.70;;;;;;5050617;28;20029;-80
2024/03/28 04:03:53;;;;;;;1.00;0.90;;;15.60;71.70;;;;;;5050848;28;19908;-81
2024/03/28 04:06:19;;;;;;;1.13;0.83;;;15.60;71.80;;;;;;5050533;28;20319;-80
2024/03/28 04:08:45;;;;;;;1.60;1.00;;;15.60;71.80;;;;;;5050147;28;20120;-80
2024/03/28 04:11:11;;;;;;;1.17;0.80;;;15.60;71.80;;;;;;5050008;28;20134;-81
2024/03/28 04:13:36;;;;;;;0.80;0.80;;;15.60;71.80;;;;;;5050721;28;20036;-80
2024/03/28 04:16:02;;;;;;;2.77;0.93;;;15.60;71.60;;;;;;5050408;28;20025;-80
2024/03/28 04:18:28;;;;;;;5.43;1.40;;;15.60;71.70;;;;;;5050204;28;20466;-81
2024/03/28 04:20:54;;;;;;;1.80;0.80;;;15.60;71.70;;;;;;5050398;28;20447;-81
2024/03/28 04:23:20;;;;;;;2.00;0.90;;;15.50;71.70;;;;;;5050363;28;20406;-80
2024/03/28 04:25:56;;;;;;;1.50;1.03;;;15.50;71.70;;;;;;5050478;28;20071;-80
2024/03/28 04:28:23;;;;;;;1.33;1.13;;;15.50;71.50;;;;;;5050058;28;20025;-80
2024/03/28 04:30:49;;;;;;;;;;;15.50;71.60;;;;;;5050630;28;20056;-79
2024/03/28 04:33:15;;;;;;;1.08;0.95;;;15.50;71.60;;;;;;5050076;28;19901;-80
2024/03/28 04:35:43;;;;;;;1.50;1.03;;;15.50;71.60;;;;;;5050047;28;20131;-80
2024/03/28 04:38:10;;;;;;;1.33;0.93;;;15.50;71.50;;;;;;5050347;28;20072;-81
2024/03/28 04:40:36;;;;;;;;;;;15.50;71.50;;;;;;5052106;28;20465;-80
2024/03/28 04:43:01;;;;;;;2.10;1.10;;;15.50;71.40;;;;;;5049962;28;19915;-80
2024/03/28 04:45:27;;;;;;;1.27;0.90;;;15.50;71.50;;;;;;5050193;28;20079;-80
2024/03/28 04:47:53;;;;;;;0.90;0.90;;;15.50;71.50;;;;;;5049132;28;20033;-81
2024/03/28 04:50:19;;;;;;;1.20;1.03;;;15.50;71.40;;;;;;5050019;28;20535;-81
2024/03/28 04:52:46;;;;;;;0.98;0.82;;;15.50;71.40;;;;;;5050498;28;20067;-81
2024/03/28 04:55:12;;;;;;;1.70;1.00;;;15.50;71.40;;;;;;5050058;28;20028;-80
2024/03/28 04:57:38;;;;;;;0.90;0.80;;;15.50;71.50;;;;;;5049945;28;20029;-81
2024/03/28 05:00:08;;;;;;;2.88;1.00;;;15.40;71.50;;;;;;5050061;28;20029;-80
2024/03/28 05:02:37;;;;;;;2.05;1.25;;;15.40;71.60;;;;;;5054102;28;20092;-80
2024/03/28 05:05:04;;;;;;;1.52;1.10;;;15.40;71.80;;;;;;5053206;28;20091;-80
2024/03/28 05:07:30;;;;;;;1.50;0.80;;;15.40;71.80;;;;;;5053885;28;20482;-80
2024/03/28 05:09:56;;;;;;;1.48;1.00;;;15.40;71.90;;;;;;5053616;28;20029;-80
2024/03/28 05:12:22;;;;;;;1.57;0.90;;;15.40;72.00;;;;;;5055158;28;20437;-80
2024/03/28 05:14:49;;;;;;;1.15;0.98;;;15.40;72.00;;;;;;5053450;28;20035;-81
2024/03/28 05:17:15;;;;;;;2.67;0.85;;;15.40;72.00;;;;;;5052095;28;20033;-81
2024/03/28 05:19:40;;;;;;;1.33;0.80;;;15.40;72.30;;;;;;5044882;28;20037;-80
2024/03/28 05:22:09;;;;;;;2.40;0.87;;;15.40;72.70;;;;;;5047703;28;20542;-78
2024/03/28 05:24:35;;;;;;;2.13;1.02;;;15.40;73.20;;;;;;5052989;28;20540;-79
2024/03/28 05:27:02;;;;;;;2.33;0.93;;;15.50;73.00;;;;;;5053109;28;20112;-79
2024/03/28 05:29:28;;;;;;;1.27;1.02;;;15.50;73.00;;;;;;5053678;28;20090;-80
2024/03/28 05:31:54;;;;;;;0.90;0.70;;;15.50;72.70;;;;;;5052488;28;20473;-79
2024/03/28 05:34:20;;;;;;;1.15;0.90;;;15.50;72.40;;;;;;5052484;28;20155;-78
2024/03/28 05:36:46;;;;;;;2.40;1.17;;;15.50;72.20;;;;;;5052744;28;20120;-78
2024/03/28 05:39:14;;;;;;;1.27;1.07;;;15.50;72.10;;;;;;5052518;28;20036;-79
2024/03/28 05:41:40;;;;;;;1.20;1.10;;;15.50;71.80;;;;;;5052150;28;20039;-78
2024/03/28 05:44:06;;;;;;;2.72;0.98;;;15.50;71.70;;;;;;5053652;28;20501;-78
2024/03/28 05:46:31;;;;;;;1.90;1.20;;;15.50;71.50;;;;;;5052835;28;20025;-79
2024/03/28 05:48:57;;;;;;;2.10;1.50;;;15.50;71.50;;;;;;5052411;28;20032;-79
2024/03/28 05:51:23;;;;;;;2.70;0.90;;;15.50;71.30;;;;;;5052193;28;20029;-79
2024/03/28 05:53:48;;;;;;;1.07;0.90;;;15.50;71.00;;;;;;5052381;28;20052;-80
2024/03/28 05:56:18;;;;;;;1.10;0.90;;;15.50;71.10;;;;;;5053237;28;20021;-79
2024/03/28 05:58:45;;;;;;;1.45;1.20;;;15.50;70.90;;;;;;5051962;28;20064;-79
2024/03/28 06:01:11;;;;;;;1.65;1.13;;;15.50;70.80;;;;;;5051609;28;20065;-78
2024/03/28 06:03:37;;;;;;;1.20;1.10;;;15.50;70.80;;;;;;5052978;28;20508;-79
2024/03/28 06:06:03;;;;;;;1.30;1.15;;;15.50;70.70;;;;;;5051911;28;20048;-79
2024/03/28 06:08:28;;;;;;;1.73;0.83;;;15.50;70.60;;;;;;5051731;28;20033;-79
2024/03/28 06:10:54;;;;;;;1.80;1.00;;;15.50;70.50;;;;;;5051420;28;20437;-79
2024/03/28 06:13:22;;;;;;;1.90;1.13;;;15.50;70.50;;;;;;5047587;28;20424;-78
2024/03/28 06:15:49;;;;;;;1.67;0.90;;;15.50;70.50;;;;;;5051279;28;20025;-79
2024/03/28 06:18:15;;;;;;;1.65;0.90;;;15.50;70.40;;;;;;5052314;28;20382;-79
2024/03/28 06:20:41;;;;;;;1.08;0.80;;;15.50;70.30;;;;;;5047969;28;20029;-79
2024/03/28 06:23:07;;;;;;;0.85;0.85;;;15.50;70.20;;;;;;5051917;28;20029;-79
2024/03/28 06:25:37;;;;;;;1.00;0.80;;;15.50;70.00;;;;;;5051302;28;20035;-80
2024/03/28 06:28:05;;;;;;;1.13;0.88;;;15.50;69.90;;;;;;5051265;28;20028;-79
2024/03/28 06:30:31;;;;;;;2.17;0.90;;;15.60;69.80;;;;;;5051451;28;20040;-79
2024/03/28 06:32:58;;;;;;;1.42;1.08;;;15.60;69.70;;;;;;5037966;28;20088;-79
2024/03/28 06:35:23;;;;;;;2.00;1.00;;;15.60;69.60;;;;;;5050325;28;20112;-79
2024/03/28 06:37:49;;;;;;;1.10;1.00;;;15.60;69.40;;;;;;5051086;28;20107;-79
2024/03/28 06:40:15;;;;;;;1.63;1.10;;;15.70;69.20;;;;;;5051015;28;20043;-79
2024/03/28 06:42:41;;;;;;;1.27;0.93;;;15.70;69.00;;;;;;5052742;28;20084;-79
2024/03/28 06:45:08;;;;;;;1.30;0.90;;;15.70;68.80;;;;;;5051318;28;20052;-80
2024/03/28 06:47:34;;;;;;;1.58;1.23;;;15.80;68.70;;;;;;5051184;28;20105;-78
2024/03/28 06:49:59;;;;;;;0.70;0.70;;;15.90;68.20;;;;;;5050854;28;20033;-77
2024/03/28 06:52:26;;;;;;;3.17;1.00;;;16.10;67.60;;;;;;5049982;28;20110;-78
2024/03/28 06:54:52;;;;;;;0.93;0.85;;;16.10;67.30;;;;;;5051415;28;20017;-78
2024/03/28 06:57:18;;;;;;;1.40;1.10;;;16.40;66.50;;;;;;5051674;28;20099;-78
2024/03/28 06:59:43;;;;;;;1.57;0.97;;;16.50;66.30;;;;;;5050437;28;20033;-78
2024/03/28 07:02:09;;;;;;;1.97;1.00;;;16.50;65.90;;;;;;5050180;28;20052;-78
2024/03/28 07:04:35;;;;;;;2.73;1.03;;;16.80;64.90;;;;;;5051657;28;20023;-78
2024/03/28 07:07:01;;;;;;;1.13;0.90;;;16.80;64.70;;;;;;5050840;28;20481;-78
2024/03/28 07:09:26;;;;;;;2.17;1.73;;;16.50;65.60;;;;;;5051673;28;20037;-77
2024/03/28 07:11:52;;;;;;;1.10;1.00;;;16.40;66.10;;;;;;5051634;28;20466;-78
2024/03/28 07:14:18;;;;;;;1.50;0.90;;;16.30;66.40;;;;;;5050258;28;20021;-78
2024/03/28 07:16:45;;;;;;;1.52;0.80;;;16.30;66.70;;;;;;5050167;28;20025;-78
2024/03/28 07:19:11;;;;;;;2.15;0.90;;;16.30;66.70;;;;;;5046710;28;20049;-78
2024/03/28 07:21:37;;;;;;;1.17;0.90;;;16.20;66.80;;;;;;5040824;28;20033;-78
2024/03/28 07:24:03;;;;;;;1.65;0.88;;;16.20;67.10;;;;;;5048800;28;20059;-78
2024/03/28 07:26:30;;;;;;;1.35;0.88;;;16.20;67.20;;;;;;5050103;28;20354;-78
2024/03/28 07:28:56;;;;;;;;;;;16.20;67.30;;;;;;5050382;28;20462;-78
2024/03/28 07:31:22;;;;;;;0.80;0.70;;;16.10;67.30;;;;;;5051082;28;19905;-79
2024/03/28 07:33:49;;;;;;;0.90;0.80;;;16.10;67.60;;;;;;5049868;28;20033;-78
2024/03/28 07:36:15;;;;;;;1.10;1.00;;;16.10;67.50;;;;;;5049807;28;20100;-78
2024/03/28 07:38:41;;;;;;;0.80;0.80;;;16.10;67.60;;;;;;5049817;28;20055;-78
2024/03/28 07:41:07;;;;;;;0.93;0.88;;;16.00;67.90;;;;;;5049852;28;20020;-78
2024/03/28 07:43:33;;;;;;;1.67;1.03;;;16.00;68.00;;;;;;5049615;28;20051;-79
2024/03/28 07:46:02;;;;;;;1.10;0.90;;;16.00;68.00;;;;;;5049772;28;20381;-79
2024/03/28 07:48:28;;;;;;;1.05;0.80;;;16.00;67.90;;;;;;5049506;28;20029;-78
2024/03/28 07:50:58;;;;;;;0.90;0.80;;;16.10;67.60;;;;;;5049773;28;20120;-78
2024/03/28 07:53:24;;;;;;;2.45;0.80;;;16.00;68.00;;;;;;5049563;28;20078;-78
2024/03/28 07:55:49;;;;;;;0.70;0.70;;;16.00;68.00;;;;;;5050677;28;20394;-78
2024/03/28 07:58:15;;;;;;;3.50;1.00;;;16.00;68.00;;;;;;5049085;28;20033;-78
2024/03/28 08:00:41;;;;;;;1.88;0.70;;;16.00;68.00;;;;;;5049252;28;20115;-78
2024/03/28 08:03:08;;;;;;;0.93;0.83;;;15.90;68.40;;;;;;5049074;28;20124;-78
2024/03/28 08:05:35;;;;;;;1.48;0.90;;;15.90;68.50;;;;;;5050142;28;20413;-78
2024/03/28 08:08:02;;;;;;;1.10;0.90;;;15.90;68.60;;;;;;5049423;28;20032;-79
2024/03/28 08:10:30;;;;;;;1.65;0.70;;;15.90;68.60;;;;;;5049289;28;20025;-79
2024/03/28 08:12:57;;;;;;;1.20;0.98;;;15.90;68.60;;;;;;5049302;28;20060;-78
2024/03/28 08:15:25;;;;;;;0.95;0.90;;;15.90;68.60;;;;;;5047947;28;20045;-78
2024/03/28 08:17:51;;;;;;;1.00;0.70;;;15.90;68.80;;;;;;5050658;28;20045;-78
2024/03/28 08:20:20;;;;;;;1.25;1.00;;;15.90;68.90;;;;;;5035342;28;20037;-78
2024/03/28 08:22:47;;;;;;;1.02;0.93;;;15.90;68.70;;;;;;5036621;28;20523;-78
2024/03/28 08:25:13;;;;;;;1.35;0.80;;;15.90;68.80;;;;;;5049097;28;20166;-78
2024/03/28 08:27:40;;;;;;;1.00;0.90;;;15.90;68.90;;;;;;5048843;28;20066;-78
2024/03/28 08:30:06;;;;;;;1.27;1.02;;;16.00;68.80;;;;;;5049038;28;20032;-78
2024/03/28 08:32:33;;;;;;;;;;;16.00;68.70;;;;;;5049339;28;20022;-78
2024/03/28 08:34:59;;;;;;;3.67;0.80;;;16.00;68.80;;;;;;5050670;28;19947;-78
2024/03/28 08:37:26;;;;;;;2.47;0.88;;;15.90;69.10;;;;;;5053257;28;20040;-78
2024/03/28 08:39:52;;;;;;;3.53;0.88;;;15.90;69.30;;;;;;5052991;28;20041;-79
2024/03/28 08:42:18;;;;;;;1.60;0.90;;;15.90;69.40;;;;;;5052817;28;20098;-79
2024/03/28 08:44:47;;;;;;;1.33;0.80;;;15.90;69.40;;;;;;5054783;28;20135;-79
2024/03/28 08:47:14;;;;;;;2.28;0.80;;;15.80;69.60;;;;;;5054145;28;20099;-79
2024/03/28 08:49:40;;;;;;;0.85;0.73;;;15.90;69.50;;;;;;5053033;28;20029;-78
2024/03/28 08:52:07;;;;;;;0.82;0.65;;;15.90;69.70;;;;;;5053503;28;20021;-79
2024/03/28 08:54:34;;;;;;;3.85;0.85;;;15.90;69.60;;;;;;5052689;28;20036;-78
2024/03/28 08:56:59;;;;;;;1.02;0.80;;;15.80;69.70;;;;;;5052489;28;20120;-80
2024/03/28 08:59:25;;;;;;;0.80;0.80;;;15.90;69.90;;;;;;5052905;28;20140;-78
2024/03/28 09:01:51;;;;;;;3.70;0.70;;;15.80;69.80;;;;;;5052536;28;20442;-77
2024/03/28 09:04:19;;;;;;;49.13;20.02;;;15.90;70.30;;;;;;5053578;28;20023;-78
2024/03/28 09:06:45;;;;;;;358.65;278.40;;;15.90;70.50;;;;;;5053348;28;20021;-79
2024/03/28 09:09:11;;;;;;;31.33;23.63;;;15.90;70.80;;;;;;5052386;28;20087;-78
2024/03/28 09:11:37;;;;;;;70.00;51.43;;;15.90;70.60;;;;;;5052830;28;20502;-77
2024/03/28 09:14:03;;;;;;;58.95;45.45;;;15.90;70.70;;;;;;5052260;28;20029;-79
2024/03/28 09:16:33;;;;;;;53.77;41.77;;;15.90;70.60;;;;;;5052036;28;20029;-77
2024/03/28 09:18:59;;;;;;;52.03;36.67;;;15.90;70.50;;;;;;5052416;28;20103;-78
2024/03/28 09:21:25;;;;;;;165.55;140.40;;;15.90;70.50;;;;;;5052523;28;20540;-76
2024/03/28 09:23:51;;;;;;;90.10;66.47;;;15.90;70.80;;;;;;5052179;28;20466;-75
2024/03/28 09:26:19;;;;;;;78.75;56.60;;;16.00;70.80;;;;;;5050950;28;20025;-75
2024/03/28 09:28:58;;;;;;;69.32;54.03;;;16.00;71.10;;;;;;5053015;28;20040;-76
2024/03/28 09:31:26;;;;;;;62.65;47.17;;;16.00;71.00;;;;;;5051548;28;20027;-77
2024/03/28 09:33:52;;;;;;;51.08;37.05;;;16.00;71.40;;;;;;5051498;28;20421;-77
2024/03/28 09:36:18;;;;;;;48.73;35.83;;;16.00;71.00;;;;;;5051868;28;20016;-77
2024/03/28 09:38:52;;;;;;;57.43;43.17;;;16.00;71.10;;;;;;5043784;28;20041;-77
2024/03/28 09:41:28;;;;;;;50.90;39.88;;;16.00;71.20;;;;;;5051756;28;20021;-76
2024/03/28 09:44:04;;;;;;;40.37;35.53;;;16.00;71.10;;;;;;5050349;28;20053;-77
2024/03/28 09:46:31;;;;;;;42.00;33.22;;;16.00;71.00;;;;;;5037554;28;20308;-77
2024/03/28 09:49:01;;;;;;;45.08;32.35;;;16.00;71.10;;;;;;5050813;28;20416;-77
2024/03/28 09:51:27;;;;;;;38.78;30.65;;;16.00;71.00;;;;;;5048829;28;20053;-78
2024/03/28 09:53:54;;;;;;;40.63;32.03;;;16.00;71.00;;;;;;5035104;28;20021;-77
2024/03/28 09:56:23;;;;;;;38.03;30.02;;;16.00;71.00;;;;;;5049563;28;20036;-79
2024/03/28 09:58:50;;;;;;;37.08;31.02;;;16.00;71.20;;;;;;5045898;28;20056;-80
2024/03/28 10:01:16;;;;;;;33.63;27.30;;;16.10;71.50;;;;;;5049167;28;20023;-81
2024/03/28 10:04:04;;;;;;;35.83;27.57;;;16.00;71.80;;;;;;5042292;28;20037;-79
2024/03/28 10:06:30;;;;;;;35.35;27.40;;;16.10;71.90;;;;;;5044656;28;20116;-78
2024/03/28 10:08:56;;;;;;;33.17;26.05;;;16.00;72.00;;;;;;5049004;28;20032;-78
2024/03/28 10:11:22;;;;;;;35.65;24.48;;;16.00;72.40;;;;;;5049357;28;20021;-79
2024/03/28 10:13:49;;;;;;;30.53;24.37;;;16.00;72.40;;;;;;5049755;28;20078;-78
2024/03/28 10:16:18;;;;;;;28.58;23.65;;;16.00;72.60;;;;;;5049324;28;20035;-77
2024/03/28 10:18:45;;;;;;;26.65;22.20;;;16.00;72.70;;;;;;5039329;28;20482;-77
2024/03/28 10:21:14;;;;;;;30.63;23.13;;;16.10;72.80;;;;;;5039692;28;20013;-77
2024/03/28 10:23:39;;;;;;;26.08;21.98;;;16.10;73.10;;;;;;5050132;28;20029;-79
2024/03/28 10:26:09;;;;;;;29.60;21.80;;;16.00;73.20;;;;;;5051440;28;20021;-77
2024/03/28 10:28:36;;;;;;;26.35;21.20;;;16.00;73.20;;;;;;5040070;28;20056;-78
2024/03/28 10:31:04;;;;;;;22.20;19.75;;;16.10;73.00;;;;;;5049394;28;20454;-76
2024/03/28 10:33:33;;;;;;;26.30;18.92;;;16.20;72.80;;;;;;5048122;28;20060;-78
2024/03/28 10:36:03;;;;;;;23.65;18.85;;;16.30;72.70;;;;;;5049421;28;20687;-76
2024/03/28 10:38:30;;;;;;;152.57;94.10;;;16.30;72.60;;;;;;5040086;28;20047;-78
2024/03/28 10:40:58;;;;;;;66.55;42.33;;;16.30;72.70;;;;;;5048747;28;20029;-77
2024/03/28 10:43:27;;;;;;;64.55;43.72;;;16.20;73.00;;;;;;5048931;28;20386;-76
2024/03/28 10:45:59;;;;;;;62.80;43.50;;;16.30;73.00;;;;;;5048315;28;20024;-77
2024/03/28 10:48:25;;;;;;;56.70;40.30;;;16.40;72.80;;;;;;5041617;28;20033;-78
2024/03/28 10:50:59;;;;;;;57.20;38.58;;;16.50;72.50;;;;;;5049966;28;20033;-78
2024/03/28 10:53:36;;;;;;;54.80;36.88;;;16.60;72.10;;;;;;5033521;28;20116;-77
2024/03/28 10:56:12;;;;;;;58.28;35.47;;;16.70;72.00;;;;;;5049473;28;20028;-80
2024/03/28 10:58:38;;;;;;;49.42;34.33;;;16.80;71.70;;;;;;5042693;28;20029;-77
2024/03/28 11:01:05;;;;;;;45.88;33.20;;;16.90;71.20;;;;;;5051418;28;20470;-78
2024/03/28 11:03:33;;;;;;;45.72;31.88;;;16.90;71.30;;;;;;5047389;28;20409;-78
2024/03/28 11:05:59;;;;;;;48.45;31.00;;;16.90;71.50;;;;;;5032620;28;20025;-79
2024/03/28 11:08:29;;;;;;;43.17;30.73;;;16.90;71.30;;;;;;5046189;28;20502;-79
2024/03/28 11:11:01;;;;;;;38.08;27.70;;;17.00;71.20;;;;;;5038959;28;20352;-78
2024/03/28 11:13:28;;;;;;;43.40;28.13;;;17.10;70.90;;;;;;5038367;28;20072;-78
2024/03/28 11:16:05;;;;;;;37.35;27.40;;;17.10;70.90;;;;;;5044743;28;20138;-77
2024/03/28 11:18:32;;;;;;;;;;;17.00;71.20;;;;;;5045823;28;20075;-77
2024/03/28 11:21:04;;;;;;;35.63;25.20;;;16.90;71.70;;;;;;5037407;28;19905;-77
2024/03/28 11:23:33;;;;;;;36.55;24.63;;;16.90;72.10;;;;;;5042815;28;20106;-77
2024/03/28 11:26:07;;;;;;;33.47;25.70;;;16.90;72.10;;;;;;5051057;28;20029;-79
2024/03/28 11:28:39;;;;;;;30.27;24.52;;;16.90;72.20;;;;;;5038951;28;20028;-77
2024/03/28 11:31:06;;;;;;;31.00;22.75;;;16.90;72.10;;;;;;5042226;28;20028;-80
2024/03/28 11:33:42;;;;;;;30.15;22.35;;;17.10;71.90;;;;;;5032954;28;20044;-76
2024/03/28 11:36:09;;;;;;;30.42;22.48;;;17.20;71.70;;;;;;5033507;28;20056;-78
2024/03/28 11:38:36;;;;;;;30.27;21.67;;;17.20;71.60;;;;;;5042464;28;20374;-79
2024/03/28 11:41:03;;;;;;;34.42;22.85;;;17.10;71.90;;;;;;5042598;28;20123;-76
2024/03/28 11:43:31;;;;;;;29.00;20.60;;;17.10;72.20;;;;;;5037408;28;20405;-76
2024/03/28 11:46:00;;;;;;;29.48;20.27;;;17.20;72.00;;;;;;5047120;28;20025;-79
2024/03/28 11:48:28;;;;;;;29.05;20.38;;;17.30;71.80;;;;;;5048531;28;20080;-75
2024/03/28 11:50:55;;;;;;;27.48;19.42;;;17.50;71.00;;;;;;5045908;28;20025;-78
2024/03/28 11:53:20;;;;;;;;;;;17.70;70.10;;;;;;5034786;28;20032;-76
2024/03/28 11:55:48;;;;;;;24.73;18.75;;;17.80;69.70;;;;;;5041987;28;20333;-79
2024/03/28 11:58:24;;;;;;;38.67;32.67;;;17.90;69.30;;;;;;5045447;28;20140;-77
2024/03/28 12:00:56;;;;;;;23.58;17.20;;;18.00;68.80;;;;;;5045499;28;20104;-78
2024/03/28 12:03:22;;;;;;;27.40;17.33;;;18.00;68.50;;;;;;5044215;28;20221;-78
2024/03/28 12:05:52;;;;;;;22.40;15.57;;;18.10;68.40;;;;;;5038361;28;20478;-76
2024/03/28 12:08:29;;;;;;;23.70;15.77;;;18.10;68.10;;;;;;5045301;28;20369;-76
2024/03/28 12:11:02;;;;;;;;;;;18.20;67.90;;;;;;5041349;28;20370;-76
2024/03/28 12:13:32;;;;;;;21.40;14.60;;;18.20;67.80;;;;;;5047530;28;19908;-76
2024/03/28 12:15:59;;;;;;;20.13;14.20;;;18.20;67.90;;;;;;5042165;28;20052;-76
2024/03/28 12:18:25;;;;;;;;;;;18.20;68.20;;;;;;5041887;28;21942;-75
2024/03/28 12:21:05;;;;;;;19.45;13.40;;;18.30;68.10;;;;;;5034801;28;20297;-76
2024/03/28 12:23:33;;;;;;;28.45;13.13;;;18.40;67.90;;;;;;5048983;28;20032;-76
2024/03/28 12:25:59;;;;;;;16.67;12.20;;;18.50;67.90;;;;;;5047851;28;20021;-76
2024/03/28 12:28:25;;;;;;;20.13;12.52;;;18.50;67.80;;;;;;5041179;28;20111;-74
2024/03/28 12:30:52;;;;;;;19.07;12.23;;;18.60;67.70;;;;;;5047906;28;20119;-75
2024/03/28 12:33:18;;;;;;;;;;;18.60;67.90;;;;;;5041477;28;20021;-79
2024/03/28 12:35:44;;;;;;;29.27;17.63;;;18.60;68.10;;;;;;5048825;28;19911;-80
2024/03/28 12:38:14;;;;;;;43.63;21.80;;;18.70;68.00;;;;;;5049577;28;20030;-79
2024/03/28 12:40:44;;;;;;;37.95;20.75;;;18.80;67.70;;;;;;5044590;28;20037;-79
2024/03/28 12:43:14;;;;;;;32.25;18.23;;;18.90;67.40;;;;;;5081043;28;20021;-82
2024/03/28 12:45:40;;;;;;;36.63;17.10;;;19.00;67.30;;;;;;5034644;28;20152;-82
2024/03/28 12:48:08;;;;;;;30.00;16.43;;;19.00;67.30;;;;;;5049821;28;20096;-82